sensor_id;sensor_type;location;lat;lon;timestamp;pressure;altitude;pressure_sealevel;temperature;humidity
33404;BME280;19751;40.274;18.268;2022-12-11T00:02:17;99341.63;;;16.03;100.00
33404;BME280;19751;40.274;18.268;2022-12-11T00:04:42;99350.38;;;16.05;100.00
33404;BME280;19751;40.274;18.268;2022-12-11T00:07:08;99352.81;;;16.07;100.00
33404;BME280;19751;40.274;18.268;2022-12-11T00:09:34;99360.44;;;16.10;100.00
33404;BME280;19751;40.274;18.268;2022-12-11T00:12:00;99363.16;;;16.10;100.00
33404;BME280;19751;40.274;18.268;2022-12-11T00:14:27;99356.91;;;16.09;100.00
33404;BME280;19751;40.274;18.268;2022-12-11T00:16:53;99348.19;;;16.07;100.00
33404;BME280;19751;40.274;18.268;2022-12-11T00:19:19;99352.81;;;16.07;100.00
33404;BME280;19751;40.274;18.268;2022-12-11T00:21:44;99336.78;;;16.05;100.00
33404;BME280;19751;40.274;18.268;2022-12-11T00:24:10;99342.47;;;16.04;100.00
33404;BME280;19751;40.274;18.268;2022-12-11T00:26:35;99332.69;;;16.03;100.00
33404;BME280;19751;40.274;18.268;2022-12-11T00:29:02;99328.34;;;16.02;100.00
33404;BME280;19751;40.274;18.268;2022-12-11T00:31:27;99325.63;;;16.02;100.00
33404;BME280;19751;40.274;18.268;2022-12-11T00:33:53;99326.66;;;16.01;100.00
33404;BME280;19751;40.274;18.268;2022-12-11T00:36:21;99321.78;;;15.98;100.00
33404;BME280;19751;40.274;18.268;2022-12-11T00:38:47;99330.16;;;15.96;100.00
33404;BME280;19751;40.274;18.268;2022-12-11T00:41:14;99327.72;;;15.95;100.00
33404;BME280;19751;40.274;18.268;2022-12-11T00:43:40;99333.16;;;15.95;100.00
33404;BME280;19751;40.274;18.268;2022-12-11T00:46:06;99324.47;;;15.93;100.00
33404;BME280;19751;40.274;18.268;2022-12-11T00:48:31;99329.03;;;15.92;100.00
33404;BME280;19751;40.274;18.268;2022-12-11T00:50:57;99326.59;;;15.90;100.00
33404;BME280;19751;40.274;18.268;2022-12-11T00:53:23;99324.97;;;15.89;100.00
33404;BME280;19751;40.274;18.268;2022-12-11T00:55:48;99326.59;;;15.90;100.00
33404;BME280;19751;40.274;18.268;2022-12-11T00:58:14;99335.31;;;15.93;100.00
33404;BME280;19751;40.274;18.268;2022-12-11T01:00:40;99334.25;;;15.94;100.00
33404;BME280;19751;40.274;18.268;2022-12-11T01:03:06;99340.22;;;15.96;100.00
33404;BME280;19751;40.274;18.268;2022-12-11T01:05:32;99336.13;;;15.93;100.00
33404;BME280;19751;40.274;18.268;2022-12-11T01:07:58;99348.06;;;15.92;100.00
33404;BME280;19751;40.274;18.268;2022-12-11T01:10:25;99343.47;;;15.93;100.00
33404;BME280;19751;40.274;18.268;2022-12-11T01:15:20;99340.75;;;15.93;100.00
33404;BME280;19751;40.274;18.268;2022-12-11T01:17:47;99332.03;;;15.90;100.00
33404;BME280;19751;40.274;18.268;2022-12-11T01:20:14;99335.31;;;15.93;100.00
33404;BME280;19751;40.274;18.268;2022-12-11T01:22:39;99333.66;;;15.91;100.00
33404;BME280;19751;40.274;18.268;2022-12-11T01:25:05;99334.47;;;15.92;100.00
33404;BME280;19751;40.274;18.268;2022-12-11T01:27:31;99330.13;;;15.91;100.00
33404;BME280;19751;40.274;18.268;2022-12-11T01:29:56;99327.41;;;15.91;100.00
33404;BME280;19751;40.274;18.268;2022-12-11T01:32:22;99338.28;;;15.91;100.00
33404;BME280;19751;40.274;18.268;2022-12-11T01:34:47;99332.84;;;15.91;100.00
33404;BME280;19751;40.274;18.268;2022-12-11T01:37:13;99333.94;;;15.90;100.00
33404;BME280;19751;40.274;18.268;2022-12-11T01:39:38;99327.94;;;15.88;100.00
33404;BME280;19751;40.274;18.268;2022-12-11T01:42:04;99329.81;;;15.87;100.00
33404;BME280;19751;40.274;18.268;2022-12-11T01:47:00;99331.19;;;15.85;100.00
33404;BME280;19751;40.274;18.268;2022-12-11T01:49:26;99333.06;;;15.84;100.00
33404;BME280;19751;40.274;18.268;2022-12-11T01:52:02;99331.41;;;15.83;100.00
33404;BME280;19751;40.274;18.268;2022-12-11T01:54:31;99330.88;;;15.81;100.00
33404;BME280;19751;40.274;18.268;2022-12-11T01:57:00;99329.25;;;15.80;100.00
33404;BME280;19751;40.274;18.268;2022-12-11T01:59:30;99334.09;;;15.78;100.00
33404;BME280;19751;40.274;18.268;2022-12-11T02:02:05;99338.97;;;15.76;100.00
33404;BME280;19751;40.274;18.268;2022-12-11T02:04:33;99330.84;;;15.76;100.00
33404;BME280;19751;40.274;18.268;2022-12-11T02:07:00;99336.25;;;15.76;100.00
33404;BME280;19751;40.274;18.268;2022-12-11T02:09:33;99334.59;;;15.75;100.00
33404;BME280;19751;40.274;18.268;2022-12-11T02:15:14;99318.59;;;15.74;100.00
33404;BME280;19751;40.274;18.268;2022-12-11T02:18:05;99324.00;;;15.74;100.00
33404;BME280;19751;40.274;18.268;2022-12-11T02:20:47;99321.28;;;15.74;100.00
33404;BME280;19751;40.274;18.268;2022-12-11T02:28:57;99324.00;;;15.74;100.00
33404;BME280;19751;40.274;18.268;2022-12-11T02:34:21;99332.94;;;15.69;100.00
33404;BME280;19751;40.274;18.268;2022-12-11T02:36:51;99323.16;;;15.68;100.00
33404;BME280;19751;40.274;18.268;2022-12-11T02:39:20;99328.59;;;15.68;100.00
33404;BME280;19751;40.274;18.268;2022-12-11T02:41:48;99316.91;;;15.68;100.00
33404;BME280;19751;40.274;18.268;2022-12-11T02:44:20;99319.88;;;15.66;100.00
33404;BME280;19751;40.274;18.268;2022-12-11T02:46:46;99323.16;;;15.68;100.00
33404;BME280;19751;40.274;18.268;2022-12-11T02:49:12;99314.44;;;15.66;100.00
33404;BME280;19751;40.274;18.268;2022-12-11T02:51:41;99310.91;;;15.65;100.00
33404;BME280;19751;40.274;18.268;2022-12-11T02:54:12;99316.06;;;15.67;100.00
33404;BME280;19751;40.274;18.268;2022-12-11T02:56:43;99317.97;;;15.66;100.00
33404;BME280;19751;40.274;18.268;2022-12-11T02:59:14;99310.63;;;15.67;100.00
33404;BME280;19751;40.274;18.268;2022-12-11T03:01:41;99320.69;;;15.66;100.00
33404;BME280;19751;40.274;18.268;2022-12-11T03:04:07;99316.34;;;15.65;100.00
33404;BME280;19751;40.274;18.268;2022-12-11T03:06:40;99316.34;;;15.65;100.00
33404;BME280;19751;40.274;18.268;2022-12-11T03:09:07;99318.22;;;15.65;100.00
33404;BME280;19751;40.274;18.268;2022-12-11T03:11:32;99322.00;;;15.64;100.00
33404;BME280;19751;40.274;18.268;2022-12-11T03:13:59;99320.13;;;15.64;100.00
33404;BME280;19751;40.274;18.268;2022-12-11T03:16:38;99320.34;;;15.63;100.00
33404;BME280;19751;40.274;18.268;2022-12-11T03:22:05;99314.38;;;15.61;100.00
33404;BME280;19751;40.274;18.268;2022-12-11T03:27:04;99318.41;;;15.58;100.00
33404;BME280;19751;40.274;18.268;2022-12-11T03:29:37;99316.78;;;15.57;100.00
33404;BME280;19751;40.274;18.268;2022-12-11T03:32:12;99311.03;;;15.54;100.00
33404;BME280;19751;40.274;18.268;2022-12-11T03:37:34;99306.94;;;15.51;100.00
33404;BME280;19751;40.274;18.268;2022-12-11T03:40:06;99311.53;;;15.51;100.00
33404;BME280;19751;40.274;18.268;2022-12-11T03:42:35;99306.09;;;15.51;100.00
33404;BME280;19751;40.274;18.268;2022-12-11T03:45:02;99314.50;;;15.49;100.00
33404;BME280;19751;40.274;18.268;2022-12-11T03:47:29;99315.59;;;15.48;100.00
33404;BME280;19751;40.274;18.268;2022-12-11T03:49:56;99320.22;;;15.48;100.00
33404;BME280;19751;40.274;18.268;2022-12-11T03:52:25;99326.69;;;15.47;100.00
33404;BME280;19751;40.274;18.268;2022-12-11T03:54:53;99319.63;;;15.46;100.00
33404;BME280;19751;40.274;18.268;2022-12-11T03:57:21;99320.72;;;15.45;100.00
33404;BME280;19751;40.274;18.268;2022-12-11T03:59:49;99328.03;;;15.44;100.00
33404;BME280;19751;40.274;18.268;2022-12-11T04:02:15;99333.97;;;15.41;100.00
33404;BME280;19751;40.274;18.268;2022-12-11T04:04:41;99329.63;;;15.40;100.00
33404;BME280;19751;40.274;18.268;2022-12-11T04:07:07;99336.13;;;15.39;100.00
33404;BME280;19751;40.274;18.268;2022-12-11T04:09:34;99336.13;;;15.39;100.00
33404;BME280;19751;40.274;18.268;2022-12-11T04:11:59;99333.66;;;15.37;100.00
33404;BME280;19751;40.274;18.268;2022-12-11T04:14:26;99337.19;;;15.38;100.00
33404;BME280;19751;40.274;18.268;2022-12-11T04:17:10;99334.47;;;15.38;100.00
33404;BME280;19751;40.274;18.268;2022-12-11T04:19:36;99332.03;;;15.36;100.00
33404;BME280;19751;40.274;18.268;2022-12-11T04:22:20;99324.16;;;15.35;100.00
33404;BME280;19751;40.274;18.268;2022-12-11T04:25:06;99335.81;;;15.35;100.00
33404;BME280;19751;40.274;18.268;2022-12-11T04:27:32;99331.22;;;15.36;100.00
33404;BME280;19751;40.274;18.268;2022-12-11T04:30:18;99329.56;;;15.35;100.00
33404;BME280;19751;40.274;18.268;2022-12-11T04:32:44;99341.25;;;15.35;100.00
33404;BME280;19751;40.274;18.268;2022-12-11T04:35:10;99335.81;;;15.35;100.00
33404;BME280;19751;40.274;18.268;2022-12-11T04:37:37;99343.38;;;15.33;100.00
33404;BME280;19751;40.274;18.268;2022-12-11T04:40:09;99344.19;;;15.34;100.00
33404;BME280;19751;40.274;18.268;2022-12-11T04:42:35;99340.44;;;15.35;100.00
33404;BME280;19751;40.274;18.268;2022-12-11T04:45:01;99346.91;;;15.34;100.00
33404;BME280;19751;40.274;18.268;2022-12-11T04:47:27;99345.53;;;15.31;100.00
33404;BME280;19751;40.274;18.268;2022-12-11T04:49:53;99349.56;;;15.29;100.00
33404;BME280;19751;40.274;18.268;2022-12-11T04:52:18;99340.63;;;15.28;100.00
33404;BME280;19751;40.274;18.268;2022-12-11T04:54:44;99346.31;;;15.27;100.00
33404;BME280;19751;40.274;18.268;2022-12-11T04:57:09;99349.53;;;15.24;100.00
33404;BME280;19751;40.274;18.268;2022-12-11T04:59:35;99348.13;;;15.21;100.00
33404;BME280;19751;40.274;18.268;2022-12-11T05:02:02;99350.59;;;15.23;100.00
33404;BME280;19751;40.274;18.268;2022-12-11T05:04:31;99342.78;;;15.26;100.00
33404;BME280;19751;40.274;18.268;2022-12-11T05:06:58;99346.03;;;15.28;100.00
33404;BME280;19751;40.274;18.268;2022-12-11T05:09:23;99345.53;;;15.31;100.00
33404;BME280;19751;40.274;18.268;2022-12-11T05:11:50;99350.19;;;15.36;100.00
33404;BME280;19751;40.274;18.268;2022-12-11T05:14:16;99347.81;;;15.39;100.00
33404;BME280;19751;40.274;18.268;2022-12-11T05:16:41;99347.53;;;15.41;100.00
33404;BME280;19751;40.274;18.268;2022-12-11T05:19:07;99339.97;;;15.43;100.00
33404;BME280;19751;40.274;18.268;2022-12-11T05:21:32;99350.81;;;15.43;100.00
33404;BME280;19751;40.274;18.268;2022-12-11T05:23:58;99361.09;;;15.41;100.00
33404;BME280;19751;40.274;18.268;2022-12-11T05:26:23;99365.41;;;15.37;100.00
33404;BME280;19751;40.274;18.268;2022-12-11T05:28:53;99365.09;;;15.33;100.00
33404;BME280;19751;40.274;18.268;2022-12-11T05:31:22;99374.31;;;15.32;100.00
33404;BME280;19751;40.274;18.268;2022-12-11T05:33:49;99364.25;;;15.33;100.00
33404;BME280;19751;40.274;18.268;2022-12-11T05:36:23;99382.38;;;15.27;100.00
33404;BME280;19751;40.274;18.268;2022-12-11T05:38:49;99383.38;;;15.21;100.00
33404;BME280;19751;40.274;18.268;2022-12-11T05:41:16;99386.84;;;15.16;100.00
33404;BME280;19751;40.274;18.268;2022-12-11T05:43:43;99391.41;;;15.11;100.00
33404;BME280;19751;40.274;18.268;2022-12-11T05:46:17;99392.41;;;15.05;100.00
33404;BME280;19751;40.274;18.268;2022-12-11T05:48:44;99396.69;;;15.01;100.00
33404;BME280;19751;40.274;18.268;2022-12-11T05:51:11;99404.81;;;15.01;100.00
33404;BME280;19751;40.274;18.268;2022-12-11T05:53:37;99399.91;;;14.98;100.00
33404;BME280;19751;40.274;18.268;2022-12-11T05:56:06;99405.84;;;14.95;100.00
33404;BME280;19751;40.274;18.268;2022-12-11T05:58:33;99411.75;;;14.91;100.00
33404;BME280;19751;40.274;18.268;2022-12-11T06:00:59;99409.78;;;14.87;100.00
33404;BME280;19751;40.274;18.268;2022-12-11T06:03:25;99408.91;;;14.81;100.00
33404;BME280;19751;40.274;18.268;2022-12-11T06:05:51;99409.41;;;14.78;100.00
33404;BME280;19751;40.274;18.268;2022-12-11T06:08:16;99424.78;;;14.73;100.00
33404;BME280;19751;40.274;18.268;2022-12-11T06:10:46;99425.25;;;14.70;100.00
33404;BME280;19751;40.274;18.268;2022-12-11T06:13:12;99427.72;;;14.71;100.00
33404;BME280;19751;40.274;18.268;2022-12-11T06:15:38;99442.59;;;14.69;100.00
33404;BME280;19751;40.274;18.268;2022-12-11T06:18:03;99443.41;;;14.69;100.00
33404;BME280;19751;40.274;18.268;2022-12-11T06:20:33;99439.63;;;14.70;100.00
33404;BME280;19751;40.274;18.268;2022-12-11T06:22:59;99448.03;;;14.69;100.00
33404;BME280;19751;40.274;18.268;2022-12-11T06:25:25;99459.69;;;14.69;100.00
33404;BME280;19751;40.274;18.268;2022-12-11T06:27:50;99473.47;;;14.67;100.00
33404;BME280;19751;40.274;18.268;2022-12-11T06:30:16;99469.38;;;14.65;100.00
33404;BME280;19751;40.274;18.268;2022-12-11T06:32:42;99468.28;;;14.66;100.00
33404;BME280;19751;40.274;18.268;2022-12-11T06:35:08;99463.69;;;14.66;100.00
33404;BME280;19751;40.274;18.268;2022-12-11T06:37:35;99467.81;;;14.69;100.00
33404;BME280;19751;40.274;18.268;2022-12-11T06:40:02;99466.66;;;14.65;100.00
33404;BME280;19751;40.274;18.268;2022-12-11T06:42:31;99467.16;;;14.62;100.00
33404;BME280;19751;40.274;18.268;2022-12-11T06:44:56;99462.13;;;14.54;100.00
33404;BME280;19751;40.274;18.268;2022-12-11T06:47:27;99457.47;;;14.49;100.00
33404;BME280;19751;40.274;18.268;2022-12-11T06:49:54;99435.44;;;14.46;100.00
33404;BME280;19751;40.274;18.268;2022-12-11T06:52:24;99431.50;;;14.53;100.00
33404;BME280;19751;40.274;18.268;2022-12-11T06:54:49;99435.72;;;14.61;100.00
33404;BME280;19751;40.274;18.268;2022-12-11T06:57:16;99433.00;;;14.61;100.00
33404;BME280;19751;40.274;18.268;2022-12-11T06:59:42;99434.69;;;14.67;100.00
33404;BME280;19751;40.274;18.268;2022-12-11T07:02:12;99449.66;;;14.70;100.00
33404;BME280;19751;40.274;18.268;2022-12-11T07:04:39;99468.78;;;14.63;100.00
33404;BME280;19751;40.274;18.268;2022-12-11T07:07:05;99477.59;;;14.53;100.00
33404;BME280;19751;40.274;18.268;2022-12-11T07:09:30;99498.66;;;14.51;100.00
33404;BME280;19751;40.274;18.268;2022-12-11T07:11:56;99507.16;;;14.43;100.00
33404;BME280;19751;40.274;18.268;2022-12-11T07:14:21;99517.44;;;14.41;100.00
33404;BME280;19751;40.274;18.268;2022-12-11T07:16:47;99525.47;;;14.36;100.00
33404;BME280;19751;40.274;18.268;2022-12-11T07:19:12;99538.69;;;14.32;100.00
33404;BME280;19751;40.274;18.268;2022-12-11T07:21:38;99537.63;;;14.33;100.00
33404;BME280;19751;40.274;18.268;2022-12-11T07:24:04;99531.63;;;14.31;100.00
33404;BME280;19751;40.274;18.268;2022-12-11T07:26:29;99535.50;;;14.35;100.00
33404;BME280;19751;40.274;18.268;2022-12-11T07:28:56;99537.69;;;14.38;100.00
33404;BME280;19751;40.274;18.268;2022-12-11T07:31:23;99529.56;;;14.38;100.00
33404;BME280;19751;40.274;18.268;2022-12-11T07:33:58;99546.06;;;14.37;100.00
33404;BME280;19751;40.274;18.268;2022-12-11T07:36:24;99545.25;;;14.36;100.00
33404;BME280;19751;40.274;18.268;2022-12-11T07:38:50;99548.66;;;14.43;100.00
33404;BME280;19751;40.274;18.268;2022-12-11T07:41:16;99550.03;;;14.46;100.00
33404;BME280;19751;40.274;18.268;2022-12-11T07:43:43;99552.38;;;14.54;100.00
33404;BME280;19751;40.274;18.268;2022-12-11T07:46:13;99553.44;;;14.53;100.00
33404;BME280;19751;40.274;18.268;2022-12-11T07:48:40;99552.84;;;14.51;100.00
33404;BME280;19751;40.274;18.268;2022-12-11T07:51:27;99565.59;;;14.51;100.00
33404;BME280;19751;40.274;18.268;2022-12-11T07:53:58;99564.53;;;14.52;100.00
33404;BME280;19751;40.274;18.268;2022-12-11T07:56:26;99552.84;;;14.51;100.00
33404;BME280;19751;40.274;18.268;2022-12-11T07:58:52;99548.03;;;14.53;100.00
33404;BME280;19751;40.274;18.268;2022-12-11T08:01:23;99552.03;;;14.51;100.00
33404;BME280;19751;40.274;18.268;2022-12-11T08:03:53;99566.19;;;14.53;100.00
33404;BME280;19751;40.274;18.268;2022-12-11T08:06:19;99574.53;;;14.51;100.00
33404;BME280;19751;40.274;18.268;2022-12-11T08:08:48;99574.78;;;14.50;100.00
33404;BME280;19751;40.274;18.268;2022-12-11T08:11:14;99591.03;;;14.50;100.00
33404;BME280;19751;40.274;18.268;2022-12-11T08:13:40;99589.59;;;14.47;100.00
33404;BME280;19751;40.274;18.268;2022-12-11T08:16:07;99592.81;;;14.44;100.00
33404;BME280;19751;40.274;18.268;2022-12-11T08:18:34;99583.53;;;14.40;100.00
33404;BME280;19751;40.274;18.268;2022-12-11T08:21:12;99598.47;;;14.42;100.00
33404;BME280;19751;40.274;18.268;2022-12-11T08:23:38;99600.81;;;14.51;100.00
33404;BME280;19751;40.274;18.268;2022-12-11T08:26:05;99601.97;;;14.55;100.00
33404;BME280;19751;40.274;18.268;2022-12-11T08:28:31;99615.28;;;14.56;100.00
33404;BME280;19751;40.274;18.268;2022-12-11T08:30:57;99613.22;;;14.63;100.00
33404;BME280;19751;40.274;18.268;2022-12-11T08:33:24;99623.38;;;14.68;100.00
33404;BME280;19751;40.274;18.268;2022-12-11T08:35:49;99629.75;;;14.62;100.00
33404;BME280;19751;40.274;18.268;2022-12-11T08:38:15;99631.91;;;14.60;100.00
33404;BME280;19751;40.274;18.268;2022-12-11T08:40:41;99644.38;;;14.61;100.00
33404;BME280;19751;40.274;18.268;2022-12-11T08:43:06;99640.34;;;14.63;100.00
33404;BME280;19751;40.274;18.268;2022-12-11T08:45:32;99636.59;;;14.64;100.00
33404;BME280;19751;40.274;18.268;2022-12-11T08:47:58;99643.97;;;14.69;100.00
33404;BME280;19751;40.274;18.268;2022-12-11T08:50:24;99649.88;;;14.66;100.00
33404;BME280;19751;40.274;18.268;2022-12-11T08:52:49;99644.59;;;14.59;100.00
33404;BME280;19751;40.274;18.268;2022-12-11T08:55:15;99647.91;;;14.61;100.00
33404;BME280;19751;40.274;18.268;2022-12-11T08:57:40;99647.75;;;14.68;100.00
33404;BME280;19751;40.274;18.268;2022-12-11T09:00:08;99648.66;;;14.74;100.00
33404;BME280;19751;40.274;18.268;2022-12-11T09:02:36;99659.50;;;14.74;100.00
33404;BME280;19751;40.274;18.268;2022-12-11T09:05:02;99661.88;;;14.70;100.00
33404;BME280;19751;40.274;18.268;2022-12-11T09:07:35;99670.75;;;14.65;100.00
33404;BME280;19751;40.274;18.268;2022-12-11T09:10:01;99659.91;;;14.65;100.00
33404;BME280;19751;40.274;18.268;2022-12-11T09:12:27;99658.00;;;14.66;100.00
33404;BME280;19751;40.274;18.268;2022-12-11T09:14:53;99671.66;;;14.71;100.00
33404;BME280;19751;40.274;18.268;2022-12-11T09:17:20;99662.44;;;14.72;100.00
33404;BME280;19751;40.274;18.268;2022-12-11T09:19:45;99662.56;;;14.77;100.00
33404;BME280;19751;40.274;18.268;2022-12-11T09:22:10;99661.81;;;14.82;100.00
33404;BME280;19751;40.274;18.268;2022-12-11T09:24:37;99650.00;;;14.88;100.00
33404;BME280;19751;40.274;18.268;2022-12-11T09:27:04;99650.00;;;14.88;100.00
33404;BME280;19751;40.274;18.268;2022-12-11T09:29:30;99637.38;;;14.94;100.00
33404;BME280;19751;40.274;18.268;2022-12-11T09:31:55;99645.09;;;15.02;100.00
33404;BME280;19751;40.274;18.268;2022-12-11T09:34:21;99638.53;;;15.14;100.00
33404;BME280;19751;40.274;18.268;2022-12-11T09:36:47;99637.06;;;15.24;100.00
33404;BME280;19751;40.274;18.268;2022-12-11T09:39:14;99631.47;;;15.30;100.00
33404;BME280;19751;40.274;18.268;2022-12-11T09:41:59;99626.34;;;15.34;100.00
33404;BME280;19751;40.274;18.268;2022-12-11T09:44:40;99639.69;;;15.35;100.00
33404;BME280;19751;40.274;18.268;2022-12-11T09:50:02;99632.28;;;15.48;100.00
33404;BME280;19751;40.274;18.268;2022-12-11T09:55:03;99636.19;;;15.57;100.00
33404;BME280;19751;40.274;18.268;2022-12-11T10:00:32;99641.69;;;15.62;100.00
33404;BME280;19751;40.274;18.268;2022-12-11T10:05:51;99636.97;;;15.69;100.00
33404;BME280;19751;40.274;18.268;2022-12-11T10:08:35;99639.47;;;15.76;100.00
33404;BME280;19751;40.274;18.268;2022-12-11T10:18:57;99647.50;;;15.87;100.00
33404;BME280;19751;40.274;18.268;2022-12-11T10:21:24;99639.69;;;15.91;100.00
33404;BME280;19751;40.274;18.268;2022-12-11T10:23:58;99650.88;;;15.95;100.00
33404;BME280;19751;40.274;18.268;2022-12-11T10:26:27;99647.09;;;15.96;100.00
33404;BME280;19751;40.274;18.268;2022-12-11T10:28:55;99644.97;;;15.98;100.00
33404;BME280;19751;40.274;18.268;2022-12-11T10:31:54;99646.16;;;16.07;100.00
33404;BME280;19751;40.274;18.268;2022-12-11T10:34:34;99642.19;;;16.14;100.00
33404;BME280;19751;40.274;18.268;2022-12-11T10:37:01;99656.13;;;16.23;100.00
33404;BME280;19751;40.274;18.268;2022-12-11T10:39:26;99639.44;;;16.36;100.00
33404;BME280;19751;40.274;18.268;2022-12-11T10:41:54;99633.09;;;16.53;100.00
33404;BME280;19751;40.274;18.268;2022-12-11T10:44:22;99636.00;;;16.68;100.00
33404;BME280;19751;40.274;18.268;2022-12-11T10:47:01;99641.06;;;16.81;100.00
33404;BME280;19751;40.274;18.268;2022-12-11T10:49:30;99650.38;;;16.90;100.00
33404;BME280;19751;40.274;18.268;2022-12-11T10:51:56;99643.34;;;16.95;100.00
33404;BME280;19751;40.274;18.268;2022-12-11T10:54:35;99645.28;;;16.99;100.00
33404;BME280;19751;40.274;18.268;2022-12-11T10:57:04;99650.25;;;17.07;100.00
33404;BME280;19751;40.274;18.268;2022-12-11T10:59:42;99644.56;;;17.09;97.10
33404;BME280;19751;40.274;18.268;2022-12-11T11:02:22;99648.13;;;17.09;97.14
33404;BME280;19751;40.274;18.268;2022-12-11T11:04:49;99647.22;;;17.04;95.93
33404;BME280;19751;40.274;18.268;2022-12-11T11:07:24;99652.44;;;17.05;94.96
33404;BME280;19751;40.274;18.268;2022-12-11T11:09:50;99644.19;;;17.00;93.01
33404;BME280;19751;40.274;18.268;2022-12-11T11:12:27;99666.75;;;16.96;91.92
33404;BME280;19751;40.274;18.268;2022-12-11T11:15:09;99653.81;;;16.81;94.36
33404;BME280;19751;40.274;18.268;2022-12-11T11:17:43;99669.53;;;16.74;97.29
33404;BME280;19751;40.274;18.268;2022-12-11T11:20:15;99666.03;;;16.78;100.00
33404;BME280;19751;40.274;18.268;2022-12-11T11:22:45;99677.22;;;16.82;100.00
33404;BME280;19751;40.274;18.268;2022-12-11T11:25:20;99685.56;;;16.75;100.00
33404;BME280;19751;40.274;18.268;2022-12-11T11:27:54;99685.84;;;16.74;100.00
33404;BME280;19751;40.274;18.268;2022-12-11T11:30:26;99678.53;;;16.79;100.00
33404;BME280;19751;40.274;18.268;2022-12-11T11:32:57;99677.50;;;16.80;100.00
33404;BME280;19751;40.274;18.268;2022-12-11T11:35:28;99684.50;;;16.76;100.00
33404;BME280;19751;40.274;18.268;2022-12-11T11:38:17;99676.75;;;16.90;100.00
33404;BME280;19751;40.274;18.268;2022-12-11T11:46:16;99662.31;;;16.84;100.00
33404;BME280;19751;40.274;18.268;2022-12-11T11:51:39;99650.78;;;16.77;100.00
33404;BME280;19751;40.274;18.268;2022-12-11T11:54:42;99659.00;;;16.82;100.00
33404;BME280;19751;40.274;18.268;2022-12-11T12:00:24;99656.78;;;16.79;99.85
33404;BME280;19751;40.274;18.268;2022-12-11T12:02:54;99664.44;;;16.82;99.98
33404;BME280;19751;40.274;18.268;2022-12-11T12:08:19;99659.50;;;16.79;99.45
33404;BME280;19751;40.274;18.268;2022-12-11T12:10:55;99648.59;;;16.74;98.70
33404;BME280;19751;40.274;18.268;2022-12-11T12:13:33;99659.66;;;16.68;96.51
33404;BME280;19751;40.274;18.268;2022-12-11T12:16:11;99651.41;;;16.62;95.66
33404;BME280;19751;40.274;18.268;2022-12-11T12:18:50;99649.28;;;16.64;93.63
33404;BME280;19751;40.274;18.268;2022-12-11T12:21:34;99642.50;;;16.67;89.63
33404;BME280;19751;40.274;18.268;2022-12-11T12:24:16;99647.94;;;16.67;88.04
33404;BME280;19751;40.274;18.268;2022-12-11T12:26:47;99655.84;;;16.69;83.94
33404;BME280;19751;40.274;18.268;2022-12-11T12:32:24;99659.38;;;16.69;81.08
33404;BME280;19751;40.274;18.268;2022-12-11T12:35:09;99656.09;;;16.67;79.33
33404;BME280;19751;40.274;18.268;2022-12-11T12:40:37;99654.34;;;16.56;80.98
33404;BME280;19751;40.274;18.268;2022-12-11T12:43:03;99649.78;;;16.61;82.36
33404;BME280;19751;40.274;18.268;2022-12-11T12:45:50;99649.81;;;16.66;83.25
33404;BME280;19751;40.274;18.268;2022-12-11T12:48:19;99655.22;;;16.61;84.36
33404;BME280;19751;40.274;18.268;2022-12-11T12:50:47;99657.63;;;16.58;84.90
33404;BME280;19751;40.274;18.268;2022-12-11T12:53:23;99658.66;;;16.52;85.36
33404;BME280;19751;40.274;18.268;2022-12-11T12:55:51;99655.44;;;16.55;86.43
33404;BME280;19751;40.274;18.268;2022-12-11T13:00:54;99673.25;;;16.68;83.55
33404;BME280;19751;40.274;18.268;2022-12-11T13:03:35;99665.53;;;16.59;81.14
33404;BME280;19751;40.274;18.268;2022-12-11T13:06:07;99669.03;;;16.55;80.65
33404;BME280;19751;40.274;18.268;2022-12-11T13:08:38;99661.44;;;16.57;77.50
33404;BME280;19751;40.274;18.268;2022-12-11T13:11:09;99668.00;;;16.61;77.37
33404;BME280;19751;40.274;18.268;2022-12-11T13:13:43;99653.06;;;16.63;77.94
33404;BME280;19751;40.274;18.268;2022-12-11T13:18:43;99647.38;;;16.65;76.73
33404;BME280;19751;40.274;18.268;2022-12-11T13:23:54;99656.03;;;16.62;76.53
33404;BME280;19751;40.274;18.268;2022-12-11T13:26:28;99656.03;;;16.62;78.15
33404;BME280;19751;40.274;18.268;2022-12-11T13:28:54;99663.13;;;16.63;74.65
33404;BME280;19751;40.274;18.268;2022-12-11T13:33:51;99672.88;;;16.59;69.74
33404;BME280;19751;40.274;18.268;2022-12-11T13:39:14;99668.41;;;16.48;69.24
33404;BME280;19751;40.274;18.268;2022-12-11T13:41:44;99673.19;;;16.40;68.42
33404;BME280;19751;40.274;18.268;2022-12-11T13:44:20;99673.69;;;16.37;70.97
33404;BME280;19751;40.274;18.268;2022-12-11T13:46:48;99668.53;;;16.36;72.41
33404;BME280;19751;40.274;18.268;2022-12-11T13:49:24;99665.81;;;16.36;72.88
33404;BME280;19751;40.274;18.268;2022-12-11T13:51:58;99661.94;;;16.32;73.15
33404;BME280;19751;40.274;18.268;2022-12-11T13:54:25;99654.88;;;16.31;74.21
33404;BME280;19751;40.274;18.268;2022-12-11T13:57:00;99663.22;;;16.24;73.18
33404;BME280;19751;40.274;18.268;2022-12-11T13:59:34;99660.13;;;16.15;68.49
33404;BME280;19751;40.274;18.268;2022-12-11T14:04:42;99659.69;;;16.02;56.85
33404;BME280;19751;40.274;18.268;2022-12-11T14:07:09;99662.06;;;15.98;58.30
33404;BME280;19751;40.274;18.268;2022-12-11T14:09:42;99669.06;;;15.94;58.21
33404;BME280;19751;40.274;18.268;2022-12-11T14:12:17;99677.97;;;15.89;59.84